sensor_id;sensor_type;location;lat;lon;timestamp;P1;durP1;ratioP1;P2;durP2;ratioP2
3943;SDS011;1986;52.546;13.428;2023-11-19T00:02:25;12.50;;;12.40;;
3943;SDS011;1986;52.546;13.428;2023-11-19T00:04:52;12.70;;;12.50;;
3943;SDS011;1986;52.546;13.428;2023-11-19T00:07:23;12.00;;;11.90;;
3943;SDS011;1986;52.546;13.428;2023-11-19T00:09:50;11.57;;;11.47;;
3943;SDS011;1986;52.546;13.428;2023-11-19T00:12:17;9.70;;;9.60;;
3943;SDS011;1986;52.546;13.428;2023-11-19T00:14:43;9.10;;;9.00;;
3943;SDS011;1986;52.546;13.428;2023-11-19T00:17:12;9.97;;;9.87;;
3943;SDS011;1986;52.546;13.428;2023-11-19T00:19:40;8.93;;;8.83;;
3943;SDS011;1986;52.546;13.428;2023-11-19T00:22:07;8.70;;;8.60;;
3943;SDS011;1986;52.546;13.428;2023-11-19T00:24:34;7.63;;;7.63;;
3943;SDS011;1986;52.546;13.428;2023-11-19T00:27:01;8.33;;;8.23;;
3943;SDS011;1986;52.546;13.428;2023-11-19T00:29:28;7.23;;;7.23;;
3943;SDS011;1986;52.546;13.428;2023-11-19T00:31:55;7.80;;;7.80;;
3943;SDS011;1986;52.546;13.428;2023-11-19T00:34:25;8.07;;;7.97;;
3943;SDS011;1986;52.546;13.428;2023-11-19T00:36:53;7.90;;;7.90;;
3943;SDS011;1986;52.546;13.428;2023-11-19T00:39:21;7.40;;;7.40;;
3943;SDS011;1986;52.546;13.428;2023-11-19T00:41:49;7.60;;;7.60;;
3943;SDS011;1986;52.546;13.428;2023-11-19T00:44:16;8.10;;;8.00;;
3943;SDS011;1986;52.546;13.428;2023-11-19T00:46:44;7.80;;;7.80;;
3943;SDS011;1986;52.546;13.428;2023-11-19T00:49:11;8.10;;;8.00;;
3943;SDS011;1986;52.546;13.428;2023-11-19T00:51:41;8.27;;;8.17;;
3943;SDS011;1986;52.546;13.428;2023-11-19T00:54:10;8.17;;;8.07;;
3943;SDS011;1986;52.546;13.428;2023-11-19T00:56:39;7.90;;;7.90;;
3943;SDS011;1986;52.546;13.428;2023-11-19T00:59:06;8.17;;;8.07;;
3943;SDS011;1986;52.546;13.428;2023-11-19T01:01:33;8.40;;;8.30;;
3943;SDS011;1986;52.546;13.428;2023-11-19T01:03:59;7.90;;;7.90;;
3943;SDS011;1986;52.546;13.428;2023-11-19T01:06:27;8.30;;;8.20;;
3943;SDS011;1986;52.546;13.428;2023-11-19T01:08:57;8.53;;;8.43;;
3943;SDS011;1986;52.546;13.428;2023-11-19T01:11:25;8.37;;;8.27;;
3943;SDS011;1986;52.546;13.428;2023-11-19T01:13:53;8.30;;;8.20;;
3943;SDS011;1986;52.546;13.428;2023-11-19T01:16:20;8.30;;;8.20;;
3943;SDS011;1986;52.546;13.428;2023-11-19T01:18:48;8.40;;;8.30;;
3943;SDS011;1986;52.546;13.428;2023-11-19T01:21:15;8.57;;;8.47;;
3943;SDS011;1986;52.546;13.428;2023-11-19T01:23:45;8.80;;;8.70;;
3943;SDS011;1986;52.546;13.428;2023-11-19T01:26:14;8.87;;;8.77;;
3943;SDS011;1986;52.546;13.428;2023-11-19T01:28:43;9.00;;;8.90;;
3943;SDS011;1986;52.546;13.428;2023-11-19T01:31:15;8.93;;;8.83;;
3943;SDS011;1986;52.546;13.428;2023-11-19T01:33:42;9.20;;;9.10;;
3943;SDS011;1986;52.546;13.428;2023-11-19T01:36:09;9.10;;;9.00;;
3943;SDS011;1986;52.546;13.428;2023-11-19T01:38:40;9.40;;;9.30;;
3943;SDS011;1986;52.546;13.428;2023-11-19T01:41:07;9.60;;;9.50;;
3943;SDS011;1986;52.546;13.428;2023-11-19T01:43:37;9.60;;;9.50;;
3943;SDS011;1986;52.546;13.428;2023-11-19T01:46:06;9.77;;;9.67;;
3943;SDS011;1986;52.546;13.428;2023-11-19T01:48:35;9.80;;;9.70;;
3943;SDS011;1986;52.546;13.428;2023-11-19T01:51:07;9.90;;;9.80;;
3943;SDS011;1986;52.546;13.428;2023-11-19T01:53:35;9.80;;;9.70;;
3943;SDS011;1986;52.546;13.428;2023-11-19T01:56:05;10.03;;;9.93;;
3943;SDS011;1986;52.546;13.428;2023-11-19T01:58:37;9.97;;;9.87;;
3943;SDS011;1986;52.546;13.428;2023-11-19T02:01:05;10.10;;;10.00;;
3943;SDS011;1986;52.546;13.428;2023-11-19T02:03:33;10.00;;;9.90;;
3943;SDS011;1986;52.546;13.428;2023-11-19T02:06:00;9.80;;;9.70;;
3943;SDS011;1986;52.546;13.428;2023-11-19T02:08:28;10.17;;;10.07;;
3943;SDS011;1986;52.546;13.428;2023-11-19T02:10:56;9.80;;;9.70;;
3943;SDS011;1986;52.546;13.428;2023-11-19T02:13:23;10.10;;;10.00;;
3943;SDS011;1986;52.546;13.428;2023-11-19T02:15:52;9.90;;;9.80;;
3943;SDS011;1986;52.546;13.428;2023-11-19T02:18:21;9.60;;;9.50;;
3943;SDS011;1986;52.546;13.428;2023-11-19T02:20:53;9.33;;;9.23;;
3943;SDS011;1986;52.546;13.428;2023-11-19T02:23:20;9.53;;;9.43;;
3943;SDS011;1986;52.546;13.428;2023-11-19T02:25:51;9.23;;;9.13;;
3943;SDS011;1986;52.546;13.428;2023-11-19T02:28:32;9.30;;;9.20;;
3943;SDS011;1986;52.546;13.428;2023-11-19T02:31:00;9.13;;;9.03;;
3943;SDS011;1986;52.546;13.428;2023-11-19T02:33:26;8.93;;;8.83;;
3943;SDS011;1986;52.546;13.428;2023-11-19T02:35:54;8.70;;;8.60;;
3943;SDS011;1986;52.546;13.428;2023-11-19T02:38:25;8.90;;;8.80;;
3943;SDS011;1986;52.546;13.428;2023-11-19T02:40:55;8.97;;;8.87;;
3943;SDS011;1986;52.546;13.428;2023-11-19T02:43:22;8.43;;;8.33;;
3943;SDS011;1986;52.546;13.428;2023-11-19T02:45:51;8.50;;;8.40;;
3943;SDS011;1986;52.546;13.428;2023-11-19T02:48:20;8.83;;;8.73;;
3943;SDS011;1986;52.546;13.428;2023-11-19T02:50:47;8.70;;;8.60;;
3943;SDS011;1986;52.546;13.428;2023-11-19T02:53:15;8.87;;;8.77;;
3943;SDS011;1986;52.546;13.428;2023-11-19T02:55:47;8.77;;;8.67;;
3943;SDS011;1986;52.546;13.428;2023-11-19T02:58:15;8.57;;;8.47;;
3943;SDS011;1986;52.546;13.428;2023-11-19T03:00:48;8.20;;;8.10;;
3943;SDS011;1986;52.546;13.428;2023-11-19T03:03:22;8.60;;;8.50;;
3943;SDS011;1986;52.546;13.428;2023-11-19T03:05:55;8.50;;;8.40;;
3943;SDS011;1986;52.546;13.428;2023-11-19T03:08:29;9.00;;;8.90;;
3943;SDS011;1986;52.546;13.428;2023-11-19T03:10:57;8.70;;;8.60;;
3943;SDS011;1986;52.546;13.428;2023-11-19T03:13:24;8.70;;;8.60;;
3943;SDS011;1986;52.546;13.428;2023-11-19T03:15:53;9.00;;;8.90;;
3943;SDS011;1986;52.546;13.428;2023-11-19T03:18:20;9.03;;;8.93;;
3943;SDS011;1986;52.546;13.428;2023-11-19T03:20:48;9.00;;;8.90;;
3943;SDS011;1986;52.546;13.428;2023-11-19T03:23:16;9.23;;;9.13;;
3943;SDS011;1986;52.546;13.428;2023-11-19T03:25:42;9.20;;;9.10;;
3943;SDS011;1986;52.546;13.428;2023-11-19T03:28:13;9.50;;;9.40;;
3943;SDS011;1986;52.546;13.428;2023-11-19T03:30:40;9.53;;;9.43;;
3943;SDS011;1986;52.546;13.428;2023-11-19T03:33:09;10.40;;;10.30;;
3943;SDS011;1986;52.546;13.428;2023-11-19T03:35:37;9.30;;;9.20;;
3943;SDS011;1986;52.546;13.428;2023-11-19T03:38:06;8.97;;;8.87;;
3943;SDS011;1986;52.546;13.428;2023-11-19T03:40:33;8.50;;;8.40;;
3943;SDS011;1986;52.546;13.428;2023-11-19T03:43:00;11.00;;;10.90;;
3943;SDS011;1986;52.546;13.428;2023-11-19T03:45:29;14.40;;;14.10;;
3943;SDS011;1986;52.546;13.428;2023-11-19T03:47:56;15.00;;;14.70;;
3943;SDS011;1986;52.546;13.428;2023-11-19T03:50:24;25.80;;;24.90;;
3943;SDS011;1986;52.546;13.428;2023-11-19T03:52:52;29.97;;;28.77;;
3943;SDS011;1986;52.546;13.428;2023-11-19T03:55:19;31.37;;;29.87;;
3943;SDS011;1986;52.546;13.428;2023-11-19T03:57:46;33.63;;;31.83;;
3943;SDS011;1986;52.546;13.428;2023-11-19T04:00:13;29.63;;;28.03;;
3943;SDS011;1986;52.546;13.428;2023-11-19T04:02:41;30.73;;;29.03;;
3943;SDS011;1986;52.546;13.428;2023-11-19T04:05:08;30.80;;;29.10;;
3943;SDS011;1986;52.546;13.428;2023-11-19T04:07:37;28.43;;;26.83;;
3943;SDS011;1986;52.546;13.428;2023-11-19T04:10:05;27.07;;;25.57;;
3943;SDS011;1986;52.546;13.428;2023-11-19T04:12:33;26.77;;;25.27;;
3943;SDS011;1986;52.546;13.428;2023-11-19T04:15:01;26.10;;;24.60;;
3943;SDS011;1986;52.546;13.428;2023-11-19T04:17:28;26.70;;;25.10;;
3943;SDS011;1986;52.546;13.428;2023-11-19T04:19:55;25.50;;;24.10;;
3943;SDS011;1986;52.546;13.428;2023-11-19T04:22:24;25.60;;;24.10;;
3943;SDS011;1986;52.546;13.428;2023-11-19T04:24:52;24.10;;;22.80;;
3943;SDS011;1986;52.546;13.428;2023-11-19T04:27:20;22.70;;;21.50;;
3943;SDS011;1986;52.546;13.428;2023-11-19T04:29:47;22.30;;;21.10;;
3943;SDS011;1986;52.546;13.428;2023-11-19T04:32:15;23.97;;;22.67;;
3943;SDS011;1986;52.546;13.428;2023-11-19T04:34:42;23.17;;;21.97;;
3943;SDS011;1986;52.546;13.428;2023-11-19T04:37:10;23.43;;;22.13;;
3943;SDS011;1986;52.546;13.428;2023-11-19T04:39:37;22.90;;;21.60;;
3943;SDS011;1986;52.546;13.428;2023-11-19T04:42:05;22.90;;;21.70;;
3943;SDS011;1986;52.546;13.428;2023-11-19T04:44:32;22.93;;;21.63;;
3943;SDS011;1986;52.546;13.428;2023-11-19T04:46:59;21.50;;;20.40;;
3943;SDS011;1986;52.546;13.428;2023-11-19T04:49:27;22.43;;;21.13;;
3943;SDS011;1986;52.546;13.428;2023-11-19T04:51:54;18.87;;;17.87;;
3943;SDS011;1986;52.546;13.428;2023-11-19T04:54:21;19.17;;;18.10;;
3943;SDS011;1986;52.546;13.428;2023-11-19T04:56:49;19.70;;;18.60;;
3943;SDS011;1986;52.546;13.428;2023-11-19T04:59:17;17.47;;;16.67;;
3943;SDS011;1986;52.546;13.428;2023-11-19T05:01:46;16.37;;;15.77;;
3943;SDS011;1986;52.546;13.428;2023-11-19T05:04:13;16.10;;;15.50;;
3943;SDS011;1986;52.546;13.428;2023-11-19T05:06:40;16.70;;;16.00;;
3943;SDS011;1986;52.546;13.428;2023-11-19T05:09:07;16.40;;;15.80;;
3943;SDS011;1986;52.546;13.428;2023-11-19T05:11:38;16.33;;;15.73;;
3943;SDS011;1986;52.546;13.428;2023-11-19T05:14:06;16.00;;;15.30;;
3943;SDS011;1986;52.546;13.428;2023-11-19T05:16:35;14.80;;;14.20;;
3943;SDS011;1986;52.546;13.428;2023-11-19T05:19:05;12.10;;;11.80;;
3943;SDS011;1986;52.546;13.428;2023-11-19T05:21:35;12.50;;;12.10;;
3943;SDS011;1986;52.546;13.428;2023-11-19T05:24:02;11.97;;;11.67;;
3943;SDS011;1986;52.546;13.428;2023-11-19T05:26:30;11.30;;;11.00;;
3943;SDS011;1986;52.546;13.428;2023-11-19T05:28:58;10.47;;;10.27;;
3943;SDS011;1986;52.546;13.428;2023-11-19T05:31:26;10.80;;;10.60;;
3943;SDS011;1986;52.546;13.428;2023-11-19T05:33:54;11.00;;;10.70;;
3943;SDS011;1986;52.546;13.428;2023-11-19T05:36:21;10.10;;;9.90;;
3943;SDS011;1986;52.546;13.428;2023-11-19T05:38:49;9.20;;;9.10;;
3943;SDS011;1986;52.546;13.428;2023-11-19T05:41:16;8.60;;;8.50;;
3943;SDS011;1986;52.546;13.428;2023-11-19T05:43:43;8.70;;;8.60;;
3943;SDS011;1986;52.546;13.428;2023-11-19T05:46:10;4.57;;;4.57;;
3943;SDS011;1986;52.546;13.428;2023-11-19T05:48:39;4.30;;;4.30;;
3943;SDS011;1986;52.546;13.428;2023-11-19T05:51:07;4.17;;;4.17;;
3943;SDS011;1986;52.546;13.428;2023-11-19T05:53:34;4.13;;;4.13;;
3943;SDS011;1986;52.546;13.428;2023-11-19T05:56:01;4.10;;;4.10;;
3943;SDS011;1986;52.546;13.428;2023-11-19T05:58:29;3.87;;;3.87;;
3943;SDS011;1986;52.546;13.428;2023-11-19T06:00:57;3.30;;;3.30;;
3943;SDS011;1986;52.546;13.428;2023-11-19T06:03:27;3.10;;;3.10;;
3943;SDS011;1986;52.546;13.428;2023-11-19T06:05:54;2.70;;;2.70;;
3943;SDS011;1986;52.546;13.428;2023-11-19T06:08:23;2.70;;;2.70;;
3943;SDS011;1986;52.546;13.428;2023-11-19T06:10:52;2.87;;;2.87;;
3943;SDS011;1986;52.546;13.428;2023-11-19T06:13:19;3.10;;;3.10;;
3943;SDS011;1986;52.546;13.428;2023-11-19T06:15:46;3.20;;;3.20;;
3943;SDS011;1986;52.546;13.428;2023-11-19T06:18:13;2.80;;;2.80;;
3943;SDS011;1986;52.546;13.428;2023-11-19T06:20:45;2.60;;;2.60;;
3943;SDS011;1986;52.546;13.428;2023-11-19T06:23:13;2.70;;;2.70;;
3943;SDS011;1986;52.546;13.428;2023-11-19T06:25:41;2.80;;;2.80;;
3943;SDS011;1986;52.546;13.428;2023-11-19T06:28:08;2.70;;;2.70;;
3943;SDS011;1986;52.546;13.428;2023-11-19T06:30:35;2.50;;;2.50;;
3943;SDS011;1986;52.546;13.428;2023-11-19T06:33:02;2.80;;;2.80;;
3943;SDS011;1986;52.546;13.428;2023-11-19T06:35:29;3.10;;;3.10;;
3943;SDS011;1986;52.546;13.428;2023-11-19T06:38:04;3.10;;;3.10;;
3943;SDS011;1986;52.546;13.428;2023-11-19T06:40:31;3.20;;;3.20;;
3943;SDS011;1986;52.546;13.428;2023-11-19T06:43:01;3.00;;;3.00;;
3943;SDS011;1986;52.546;13.428;2023-11-19T06:45:29;2.60;;;2.60;;
3943;SDS011;1986;52.546;13.428;2023-11-19T06:47:56;2.80;;;2.80;;
3943;SDS011;1986;52.546;13.428;2023-11-19T06:50:23;2.30;;;2.30;;
3943;SDS011;1986;52.546;13.428;2023-11-19T06:52:50;2.30;;;2.30;;
3943;SDS011;1986;52.546;13.428;2023-11-19T06:55:17;1.70;;;1.70;;
3943;SDS011;1986;52.546;13.428;2023-11-19T06:57:44;1.50;;;1.50;;
3943;SDS011;1986;52.546;13.428;2023-11-19T07:00:16;1.30;;;1.30;;
3943;SDS011;1986;52.546;13.428;2023-11-19T07:02:43;1.40;;;1.40;;
3943;SDS011;1986;52.546;13.428;2023-11-19T07:05:10;1.90;;;1.90;;
3943;SDS011;1986;52.546;13.428;2023-11-19T07:07:39;1.60;;;1.60;;
3943;SDS011;1986;52.546;13.428;2023-11-19T07:10:06;1.50;;;1.50;;
3943;SDS011;1986;52.546;13.428;2023-11-19T07:12:34;1.53;;;1.53;;
3943;SDS011;1986;52.546;13.428;2023-11-19T07:15:02;1.00;;;1.00;;
3943;SDS011;1986;52.546;13.428;2023-11-19T07:17:31;1.20;;;1.20;;
3943;SDS011;1986;52.546;13.428;2023-11-19T07:20:00;1.30;;;1.30;;
3943;SDS011;1986;52.546;13.428;2023-11-19T07:22:35;1.30;;;1.30;;
3943;SDS011;1986;52.546;13.428;2023-11-19T07:25:04;1.30;;;1.30;;
3943;SDS011;1986;52.546;13.428;2023-11-19T07:27:31;1.10;;;1.10;;
3943;SDS011;1986;52.546;13.428;2023-11-19T07:29:58;1.00;;;1.00;;
3943;SDS011;1986;52.546;13.428;2023-11-19T07:32:25;0.90;;;0.90;;
3943;SDS011;1986;52.546;13.428;2023-11-19T07:34:55;1.00;;;1.00;;
3943;SDS011;1986;52.546;13.428;2023-11-19T07:37:24;0.70;;;0.70;;
3943;SDS011;1986;52.546;13.428;2023-11-19T07:39:51;0.80;;;0.80;;
3943;SDS011;1986;52.546;13.428;2023-11-19T07:42:19;0.70;;;0.70;;
3943;SDS011;1986;52.546;13.428;2023-11-19T07:44:46;0.73;;;0.73;;
3943;SDS011;1986;52.546;13.428;2023-11-19T07:47:12;0.60;;;0.60;;
3943;SDS011;1986;52.546;13.428;2023-11-19T07:49:39;0.53;;;0.53;;
3943;SDS011;1986;52.546;13.428;2023-11-19T07:52:10;0.40;;;0.40;;
3943;SDS011;1986;52.546;13.428;2023-11-19T07:54:40;0.40;;;0.40;;
3943;SDS011;1986;52.546;13.428;2023-11-19T07:57:06;0.40;;;0.40;;
3943;SDS011;1986;52.546;13.428;2023-11-19T07:59:34;0.30;;;0.30;;
3943;SDS011;1986;52.546;13.428;2023-11-19T08:02:01;0.30;;;0.30;;
3943;SDS011;1986;52.546;13.428;2023-11-19T08:04:28;0.30;;;0.30;;
3943;SDS011;1986;52.546;13.428;2023-11-19T08:06:55;0.30;;;0.30;;
3943;SDS011;1986;52.546;13.428;2023-11-19T08:09:23;0.30;;;0.30;;
3943;SDS011;1986;52.546;13.428;2023-11-19T08:11:50;0.20;;;0.20;;
3943;SDS011;1986;52.546;13.428;2023-11-19T08:14:17;0.20;;;0.20;;
3943;SDS011;1986;52.546;13.428;2023-11-19T08:16:45;0.20;;;0.20;;
3943;SDS011;1986;52.546;13.428;2023-11-19T08:19:12;0.20;;;0.20;;
3943;SDS011;1986;52.546;13.428;2023-11-19T08:21:40;0.20;;;0.20;;
3943;SDS011;1986;52.546;13.428;2023-11-19T08:24:07;0.20;;;0.20;;
3943;SDS011;1986;52.546;13.428;2023-11-19T08:26:35;0.20;;;0.20;;
3943;SDS011;1986;52.546;13.428;2023-11-19T08:29:02;0.10;;;0.10;;
3943;SDS011;1986;52.546;13.428;2023-11-19T08:31:29;0.10;;;0.10;;
3943;SDS011;1986;52.546;13.428;2023-11-19T08:33:56;0.10;;;0.10;;
3943;SDS011;1986;52.546;13.428;2023-11-19T08:36:23;0.10;;;0.10;;
3943;SDS011;1986;52.546;13.428;2023-11-19T08:38:50;0.10;;;0.10;;
3943;SDS011;1986;52.546;13.428;2023-11-19T08:41:17;0.10;;;0.10;;
3943;SDS011;1986;52.546;13.428;2023-11-19T08:43:45;0.07;;;0.07;;
3943;SDS011;1986;52.546;13.428;2023-11-19T08:46:12;0.00;;;0.00;;
3943;SDS011;1986;52.546;13.428;2023-11-19T08:48:39;0.00;;;0.00;;
3943;SDS011;1986;52.546;13.428;2023-11-19T08:51:06;0.00;;;0.00;;
3943;SDS011;1986;52.546;13.428;2023-11-19T08:53:33;0.00;;;0.00;;
3943;SDS011;1986;52.546;13.428;2023-11-19T08:56:00;0.00;;;0.00;;
3943;SDS011;1986;52.546;13.428;2023-11-19T08:58:28;0.00;;;0.00;;
3943;SDS011;1986;52.546;13.428;2023-11-19T09:00:57;0.00;;;0.00;;
3943;SDS011;1986;52.546;13.428;2023-11-19T09:03:24;0.00;;;0.00;;
3943;SDS011;1986;52.546;13.428;2023-11-19T09:05:51;0.00;;;0.00;;
3943;SDS011;1986;52.546;13.428;2023-11-19T09:08:19;0.00;;;0.00;;
3943;SDS011;1986;52.546;13.428;2023-11-19T09:10:46;0.00;;;0.00;;
3943;SDS011;1986;52.546;13.428;2023-11-19T09:13:13;0.00;;;0.00;;
3943;SDS011;1986;52.546;13.428;2023-11-19T09:15:40;0.00;;;0.00;;
3943;SDS011;1986;52.546;13.428;2023-11-19T09:18:09;0.00;;;0.00;;
3943;SDS011;1986;52.546;13.428;2023-11-19T09:20:36;0.00;;;0.00;;
3943;SDS011;1986;52.546;13.428;2023-11-19T09:23:03;0.00;;;0.00;;
3943;SDS011;1986;52.546;13.428;2023-11-19T09:25:31;0.00;;;0.00;;
3943;SDS011;1986;52.546;13.428;2023-11-19T09:27:58;0.00;;;0.00;;
3943;SDS011;1986;52.546;13.428;2023-11-19T09:30:25;0.00;;;0.00;;
3943;SDS011;1986;52.546;13.428;2023-11-19T09:32:53;0.00;;;0.00;;
3943;SDS011;1986;52.546;13.428;2023-11-19T09:35:21;0.00;;;0.00;;
3943;SDS011;1986;52.546;13.428;2023-11-19T09:37:48;0.00;;;0.00;;
3943;SDS011;1986;52.546;13.428;2023-11-19T09:40:17;0.00;;;0.00;;
3943;SDS011;1986;52.546;13.428;2023-11-19T09:45:17;0.00;;;0.00;;
3943;SDS011;1986;52.546;13.428;2023-11-19T09:47:48;0.00;;;0.00;;
3943;SDS011;1986;52.546;13.428;2023-11-19T09:50:23;0.00;;;0.00;;
3943;SDS011;1986;52.546;13.428;2023-11-19T09:52:50;0.00;;;0.00;;
3943;SDS011;1986;52.546;13.428;2023-11-19T09:55:17;0.00;;;0.00;;
3943;SDS011;1986;52.546;13.428;2023-11-19T09:57:48;0.00;;;0.00;;
3943;SDS011;1986;52.546;13.428;2023-11-19T10:00:17;0.00;;;0.00;;
3943;SDS011;1986;52.546;13.428;2023-11-19T10:02:50;0.00;;;0.00;;
3943;SDS011;1986;52.546;13.428;2023-11-19T10:05:17;0.00;;;0.00;;
3943;SDS011;1986;52.546;13.428;2023-11-19T10:07:49;0.00;;;0.00;;
3943;SDS011;1986;52.546;13.428;2023-11-19T10:10:17;0.00;;;0.00;;
3943;SDS011;1986;52.546;13.428;2023-11-19T10:12:44;0.00;;;0.00;;
3943;SDS011;1986;52.546;13.428;2023-11-19T10:15:14;0.00;;;0.00;;
3943;SDS011;1986;52.546;13.428;2023-11-19T10:17:46;0.00;;;0.00;;
3943;SDS011;1986;52.546;13.428;2023-11-19T10:20:13;0.00;;;0.00;;
3943;SDS011;1986;52.546;13.428;2023-11-19T10:22:41;0.00;;;0.00;;
3943;SDS011;1986;52.546;13.428;2023-11-19T10:25:21;0.00;;;0.00;;
3943;SDS011;1986;52.546;13.428;2023-11-19T10:27:53;0.00;;;0.00;;
3943;SDS011;1986;52.546;13.428;2023-11-19T10:30:22;0.00;;;0.00;;
3943;SDS011;1986;52.546;13.428;2023-11-19T10:35:50;0.00;;;0.00;;
3943;SDS011;1986;52.546;13.428;2023-11-19T10:38:18;0.00;;;0.00;;
3943;SDS011;1986;52.546;13.428;2023-11-19T10:40:48;0.00;;;0.00;;
3943;SDS011;1986;52.546;13.428;2023-11-19T10:43:16;0.00;;;0.00;;
3943;SDS011;1986;52.546;13.428;2023-11-19T10:45:43;0.00;;;0.00;;
3943;SDS011;1986;52.546;13.428;2023-11-19T10:48:10;0.00;;;0.00;;
3943;SDS011;1986;52.546;13.428;2023-11-19T10:50:38;0.00;;;0.00;;
3943;SDS011;1986;52.546;13.428;2023-11-19T10:53:09;0.00;;;0.00;;
3943;SDS011;1986;52.546;13.428;2023-11-19T10:55:38;0.00;;;0.00;;
3943;SDS011;1986;52.546;13.428;2023-11-19T10:58:07;0.00;;;0.00;;
3943;SDS011;1986;52.546;13.428;2023-11-19T11:00:37;0.00;;;0.00;;
3943;SDS011;1986;52.546;13.428;2023-11-19T11:03:08;0.00;;;0.00;;
3943;SDS011;1986;52.546;13.428;2023-11-19T11:05:37;0.00;;;0.00;;
3943;SDS011;1986;52.546;13.428;2023-11-19T11:08:07;0.00;;;0.00;;
3943;SDS011;1986;52.546;13.428;2023-11-19T11:10:35;0.00;;;0.00;;
3943;SDS011;1986;52.546;13.428;2023-11-19T11:13:07;0.00;;;0.00;;
3943;SDS011;1986;52.546;13.428;2023-11-19T11:15:34;0.00;;;0.00;;
3943;SDS011;1986;52.546;13.428;2023-11-19T11:18:03;0.00;;;0.00;;
3943;SDS011;1986;52.546;13.428;2023-11-19T11:20:34;0.00;;;0.00;;
3943;SDS011;1986;52.546;13.428;2023-11-19T11:23:06;0.00;;;0.00;;
3943;SDS011;1986;52.546;13.428;2023-11-19T11:25:50;0.00;;;0.00;;
3943;SDS011;1986;52.546;13.428;2023-11-19T11:28:28;0.00;;;0.00;;
3943;SDS011;1986;52.546;13.428;2023-11-19T11:31:15;0.00;;;0.00;;
3943;SDS011;1986;52.546;13.428;2023-11-19T11:33:59;0.00;;;0.00;;
3943;SDS011;1986;52.546;13.428;2023-11-19T11:36:38;0.00;;;0.00;;
3943;SDS011;1986;52.546;13.428;2023-11-19T11:39:15;0.00;;;0.00;;
3943;SDS011;1986;52.546;13.428;2023-11-19T11:41:44;0.00;;;0.00;;
3943;SDS011;1986;52.546;13.428;2023-11-19T11:44:14;0.00;;;0.00;;
3943;SDS011;1986;52.546;13.428;2023-11-19T11:46:53;0.00;;;0.00;;
3943;SDS011;1986;52.546;13.428;2023-11-19T11:49:27;0.00;;;0.00;;
3943;SDS011;1986;52.546;13.428;2023-11-19T11:52:00;0.00;;;0.00;;
3943;SDS011;1986;52.546;13.428;2023-11-19T11:54:29;0.00;;;0.00;;
3943;SDS011;1986;52.546;13.428;2023-11-19T11:57:01;0.00;;;0.00;;
3943;SDS011;1986;52.546;13.428;2023-11-19T11:59:44;0.00;;;0.00;;
3943;SDS011;1986;52.546;13.428;2023-11-19T12:02:13;0.00;;;0.00;;
3943;SDS011;1986;52.546;13.428;2023-11-19T12:04:43;0.00;;;0.00;;
3943;SDS011;1986;52.546;13.428;2023-11-19T12:07:15;0.00;;;0.00;;
3943;SDS011;1986;52.546;13.428;2023-11-19T12:09:48;0.00;;;0.00;;
3943;SDS011;1986;52.546;13.428;2023-11-19T12:12:19;0.00;;;0.00;;
3943;SDS011;1986;52.546;13.428;2023-11-19T12:15:06;0.00;;;0.00;;
3943;SDS011;1986;52.546;13.428;2023-11-19T12:17:42;0.00;;;0.00;;
3943;SDS011;1986;52.546;13.428;2023-11-19T12:20:14;0.00;;;0.00;;
3943;SDS011;1986;52.546;13.428;2023-11-19T12:22:42;0.00;;;0.00;;
3943;SDS011;1986;52.546;13.428;2023-11-19T12:25:11;0.00;;;0.00;;
3943;SDS011;1986;52.546;13.428;2023-11-19T12:27:39;0.00;;;0.00;;
3943;SDS011;1986;52.546;13.428;2023-11-19T12:30:09;0.00;;;0.00;;
3943;SDS011;1986;52.546;13.428;2023-11-19T12:32:37;0.10;;;0.10;;
3943;SDS011;1986;52.546;13.428;2023-11-19T12:35:06;0.30;;;0.30;;
3943;SDS011;1986;52.546;13.428;2023-11-19T12:37:42;0.60;;;0.60;;
3943;SDS011;1986;52.546;13.428;2023-11-19T12:40:12;1.27;;;1.27;;
3943;SDS011;1986;52.546;13.428;2023-11-19T12:42:44;1.40;;;1.40;;
3943;SDS011;1986;52.546;13.428;2023-11-19T12:45:14;1.83;;;1.83;;
3943;SDS011;1986;52.546;13.428;2023-11-19T12:47:42;2.40;;;2.40;;
3943;SDS011;1986;52.546;13.428;2023-11-19T12:50:09;3.27;;;3.27;;
3943;SDS011;1986;52.546;13.428;2023-11-19T12:52:37;2.00;;;2.00;;
3943;SDS011;1986;52.546;13.428;2023-11-19T12:55:05;1.70;;;1.70;;
3943;SDS011;1986;52.546;13.428;2023-11-19T12:57:50;1.40;;;1.40;;
3943;SDS011;1986;52.546;13.428;2023-11-19T13:00:19;1.20;;;1.20;;
3943;SDS011;1986;52.546;13.428;2023-11-19T13:02:50;1.43;;;1.43;;
3943;SDS011;1986;52.546;13.428;2023-11-19T13:05:22;1.20;;;1.20;;
3943;SDS011;1986;52.546;13.428;2023-11-19T13:08:03;1.73;;;1.73;;
3943;SDS011;1986;52.546;13.428;2023-11-19T13:10:52;2.00;;;2.00;;
3943;SDS011;1986;52.546;13.428;2023-11-19T13:13:20;2.70;;;2.70;;
3943;SDS011;1986;52.546;13.428;2023-11-19T13:15:49;3.03;;;3.03;;
3943;SDS011;1986;52.546;13.428;2023-11-19T13:18:19;3.73;;;3.73;;
3943;SDS011;1986;52.546;13.428;2023-11-19T13:20:46;4.00;;;4.00;;
3943;SDS011;1986;52.546;13.428;2023-11-19T13:23:13;4.30;;;4.30;;
3943;SDS011;1986;52.546;13.428;2023-11-19T13:25:40;4.53;;;4.53;;
3943;SDS011;1986;52.546;13.428;2023-11-19T13:28:08;4.83;;;4.83;;
3943;SDS011;1986;52.546;13.428;2023-11-19T13:30:37;5.30;;;5.30;;
3943;SDS011;1986;52.546;13.428;2023-11-19T13:33:05;4.90;;;4.90;;
3943;SDS011;1986;52.546;13.428;2023-11-19T13:35:32;5.17;;;5.17;;
3943;SDS011;1986;52.546;13.428;2023-11-19T13:38:00;5.30;;;5.30;;
3943;SDS011;1986;52.546;13.428;2023-11-19T13:40:27;5.40;;;5.40;;
3943;SDS011;1986;52.546;13.428;2023-11-19T13:42:57;5.60;;;5.60;;
3943;SDS011;1986;52.546;13.428;2023-11-19T13:45:26;5.80;;;5.80;;
3943;SDS011;1986;52.546;13.428;2023-11-19T13:47:53;5.40;;;5.40;;
3943;SDS011;1986;52.546;13.428;2023-11-19T13:50:22;5.60;;;5.60;;
3943;SDS011;1986;52.546;13.428;2023-11-19T13:52:49;5.33;;;5.33;;
3943;SDS011;1986;52.546;13.428;2023-11-19T13:55:16;5.73;;;5.73;;
3943;SDS011;1986;52.546;13.428;2023-11-19T13:57:43;5.80;;;5.80;;
3943;SDS011;1986;52.546;13.428;2023-11-19T14:00:11;5.93;;;5.93;;
3943;SDS011;1986;52.546;13.428;2023-11-19T14:02:41;6.00;;;6.00;;
3943;SDS011;1986;52.546;13.428;2023-11-19T14:05:09;5.70;;;5.70;;
3943;SDS011;1986;52.546;13.428;2023-11-19T14:07:38;6.10;;;6.10;;
3943;SDS011;1986;52.546;13.428;2023-11-19T14:10:07;5.97;;;5.97;;
3943;SDS011;1986;52.546;13.428;2023-11-19T14:12:36;5.77;;;5.77;;
3943;SDS011;1986;52.546;13.428;2023-11-19T14:15:04;6.10;;;6.10;;
3943;SDS011;1986;52.546;13.428;2023-11-19T14:17:33;5.80;;;5.80;;
3943;SDS011;1986;52.546;13.428;2023-11-19T14:20:00;6.30;;;6.30;;
3943;SDS011;1986;52.546;13.428;2023-11-19T14:22:29;6.60;;;6.60;;
3943;SDS011;1986;52.546;13.428;2023-11-19T14:24:58;6.47;;;6.47;;
3943;SDS011;1986;52.546;13.428;2023-11-19T14:27:27;6.53;;;6.53;;
3943;SDS011;1986;52.546;13.428;2023-11-19T14:29:56;6.20;;;6.20;;
3943;SDS011;1986;52.546;13.428;2023-11-19T14:32:23;6.60;;;6.60;;
3943;SDS011;1986;52.546;13.428;2023-11-19T14:34:50;6.07;;;6.07;;
3943;SDS011;1986;52.546;13.428;2023-11-19T14:37:21;5.97;;;5.97;;
3943;SDS011;1986;52.546;13.428;2023-11-19T14:39:49;6.20;;;6.20;;
3943;SDS011;1986;52.546;13.428;2023-11-19T14:42:17;6.47;;;6.47;;
3943;SDS011;1986;52.546;13.428;2023-11-19T14:44:45;7.03;;;7.03;;
3943;SDS011;1986;52.546;13.428;2023-11-19T14:47:12;6.50;;;6.50;;
3943;SDS011;1986;52.546;13.428;2023-11-19T14:49:41;6.40;;;6.40;;
3943;SDS011;1986;52.546;13.428;2023-11-19T14:52:08;6.10;;;6.10;;
3943;SDS011;1986;52.546;13.428;2023-11-19T14:54:35;6.93;;;6.93;;
3943;SDS011;1986;52.546;13.428;2023-11-19T14:57:03;6.70;;;6.70;;
3943;SDS011;1986;52.546;13.428;2023-11-19T14:59:37;6.70;;;6.70;;
3943;SDS011;1986;52.546;13.428;2023-11-19T15:02:04;6.80;;;6.80;;
3943;SDS011;1986;52.546;13.428;2023-11-19T15:04:31;7.10;;;7.10;;
3943;SDS011;1986;52.546;13.428;2023-11-19T15:07:00;6.80;;;6.80;;
3943;SDS011;1986;52.546;13.428;2023-11-19T15:09:28;6.60;;;6.60;;
3943;SDS011;1986;52.546;13.428;2023-11-19T15:11:58;6.03;;;6.03;;
3943;SDS011;1986;52.546;13.428;2023-11-19T15:14:27;5.70;;;5.70;;